Tiempo atmosférico en la estación meteorológica de Mora, Toledo (717 m.)



Fecha
DESCASC
Temp. máxima en grados centígrados (hora)
DESCASC
Temp. mínima en grados centígrados (hora)
DESCASC
Temp. media en grados centígrados
DESCASC
Racha de viento máxima en m/sg (hora)
DESCASC
Velocidad máxima media en intervalos de 10 minutos(hora)
DESCASC
Precipitaciones diarias en mm
DESCASC
Precipitaciones de 00:00 a 06:00 en mm
DESCASC
Precipitaciones de 06:00 a 12:00 en mm
DESCASC
Precipitaciones de 12:00 a 18:00 en mm
DESCASC
Precipitaciones de 18:00 a 24:00 en mm
DESCASC
19-09-2019 28.5 (15:50) 16.9 (07:50) 22.7 7.22 (16:10) 3.33 (16:20) 0.2 0 0 0.2 0
18-09-2019 27.9 (18:50) 13.6 (06:40) 20.8 5.28 (00:30) 3.33 (00:30) 0 0 0 0 0
17-09-2019 28 (16:20) 16.3 (00:00) 22.1 10.83 (18:00) 4.17 (18:00) 0.4 0 0 0.4 0
16-09-2019 26.3 (18:40) 16.8 (00:00) 21.5 3.89 (02:00) 2.22 (02:00) 7 5 2 0 0
15-09-2019 24.7 (17:10) 14.7 (00:00) 19.7 9.72 (03:00) 5 (19:20) 40.8 21 5.6 1.6 12.6
14-09-2019 18.2 (19:00) 14.1 (00:00) 16.2 10.83 (14:30) 5.83 (14:40) 10.4 0 2.2 7.6 0.6
13-09-2019 21 (00:20) 14.8 (00:00) 17.9 12.5 (00:20) 7.22 (16:50) 5.6 0 0 1.6 4
12-09-2019 25.5 (14:20) 12.8 (00:00) 19.2 12.5 (14:40) 7.22 (14:40) 0 0 0 0 0
11-09-2019 25.2 (17:50) 11.2 (00:00) 18.2 15.56 (16:00) 9.17 (16:00) 0 0 0 0 0
10-09-2019 21.6 (16:50) 14.2 (23:59) 17.9 13.61 (19:10) 9.17 (18:30) 0 0 0 0 0
09-09-2019 29.9 (16:40) 16.3 (07:50) 23.1 11.67 (18:20) 6.67 (17:40) 0 0 0 0 0
08-09-2019 29.2 (17:30) 16.5 (00:00) 22.9 8.89 (03:00) 4.72 (03:00) 0 0 0 0 0
07-09-2019 29.6 (16:40) 15.4 (00:00) 22.5 8.89 (13:00) 3.33 (19:40) 0 0 0 0 0
06-09-2019 26.9 (18:40) 10.4 (00:00) 18.6 6.94 (02:00) 4.17 (01:10) 0 0 0 0 0
05-09-2019 29.2 (16:50) 16.5 (00:00) 22.9 9.72 (18:50) 5.83 (18:50) 0 0 0 0 0
04-09-2019 33.5 (17:40) 19 (00:00) 26.3 7.5 (16:50) 3.61 (16:20) 0 0 0 0 0
03-09-2019 33.2 (16:50) 19.3 (00:00) 26.3 7.22 (03:30) 3.89 (17:00) 0 0 0 0 0
02-09-2019 32.8 (17:10) 17.6 (00:00) 25.2 6.94 (17:30) 3.61 (13:40) 0 0 0 0 0
01-09-2019 33.1 (14:50) 21 (00:00) 27 9.17 (19:10) 5.83 (19:30) 0 0 0 0 0
31-08-2019 34.1 (18:20) 18 (00:00) 26 6.11 (00:10) 3.33 (00:20) 0 0 0 0 0
30-08-2019 35.2 (16:50) 19.8 (00:00) 27.5 15.56 (19:40) 8.33 (19:40) 0 0 0 0 0
29-08-2019 34.6 (18:20) 19.9 (00:00) 27.2 6.39 (19:50) 3.33 (19:50) 0 0 0 0 0
28-08-2019 31.6 (17:30) 16.8 (00:00) 24.2 6.94 (13:50) 3.89 (19:40) 0 0 0 0 0
27-08-2019 28.2 (18:20) 14.4 (00:00) 21.3 7.78 (19:10) 4.72 (19:00) 0 0 0 0 0
26-08-2019 30.4 (17:50) 17.5 (00:00) 23.9 13.06 (02:40) 7.5 (21:10) 5.6 0 0 0 5.6
25-08-2019 33.7 (17:20) 19.6 (00:00) 26.7 13.06 (23:40) 6.39 (22:10) 0 0 0 0 0
24-08-2019 34.3 (19:10) 18.1 (00:00) 26.2 6.94 (17:10) 3.61 (16:30) 0 0 0 0 0
23-08-2019 32.8 (19:10) 18.6 (00:00) 25.7 8.61 (14:50) 3.89 (01:40) 0 0 0 0 0
22-08-2019 32 (17:30) 17.2 (00:00) 24.6 10.56 (00:10) 5.83 (00:10) 0 0 0 0 0
21-08-2019 29.9 (15:00) 19.5 (00:00) 24.7 13.61 (23:50) 7.22 (23:40) 0.2 0 0 0 0.2

Gráficas

Temp. máximas Temp. mínimas Temp. medias Precipitaciones Rachas de viento máximas Velocidades máximas media en intervalos de 10 minutos

Datos horarios

Fecha y hora oficial Temperatura (ºC) Velocidad del viento (km/h) Dirección del viento Racha (km/h) Dirección de racha Precipitación (mm) Presión (hPa) Tendencia (hPa) Humedad (%)
2019-09-19 23:00:00 22.4 7 Sudeste 13 Sudeste 0 -- -- 58
2019-09-19 22:00:00 23.3 6 Sudeste 15 Sudeste 0 -- -- 48
2019-09-19 21:00:00 24.2 6 Sudeste 13 Sudeste 0 -- -- 45
2019-09-19 20:00:00 25.7 6 Este 18 Este 0 -- -- 46
2019-09-19 19:00:00 28.1 9 Sudeste 17 Sudeste 0 -- -- 41
2019-09-19 18:00:00 27.2 9 Noroeste -- -- 0.2 -- -- 45
2019-09-19 17:00:00 -- 8 Sudeste 26 Sudeste 0 -- -- --
2019-09-19 16:00:00 28.2 9 Sudeste 22 Sudeste 0 -- -- 41
2019-09-19 15:00:00 26.5 7 Sudeste 19 Este 0 -- -- 42
2019-09-19 14:00:00 27.9 5 Sudeste 18 Sur 0 -- -- 43
2019-09-19 13:00:00 26.9 8 Sudeste 19 Sudeste 0 -- -- 46
2019-09-19 12:00:00 25.6 8 Sudeste 15 Sur 0 -- -- 51
2019-09-19 11:00:00 23 8 Sur 15 Sudeste 0 -- -- 59
2019-09-19 10:00:00 21.4 9 Sudeste 16 Sudeste 0 -- -- 65
2019-09-19 09:00:00 19.1 8 Sur 14 Sudeste 0 -- -- 72
2019-09-19 08:00:00 16.9 4 Sur 8 Sur 0 -- -- 80
2019-09-19 07:00:00 17.4 5 Sur 11 Sur 0 -- -- 78
2019-09-19 06:00:00 17.8 7 Sur 13 Sur 0 -- -- 75
2019-09-19 05:00:00 18.1 2 Sur 9 Sur 0 -- -- 74
2019-09-19 04:00:00 17.9 4 Sudeste 9 Sur 0 -- -- 76
2019-09-19 03:00:00 18.3 2 Sudeste 6 Sudeste 0 -- -- 75
2019-09-19 02:00:00 18.4 0 Calma 10 Sur 0 -- -- 75
2019-09-19 01:00:00 20.1 5 Sur 10 Sur 0 -- -- 64
2019-09-19 00:00:00 20.5 5 Sur 10 Sur 0 -- -- 64
2019-09-18 23:00:00 21.3 4 Sur 7 Sudeste 0 -- -- 61
2019-09-18 22:00:00 22.3 3 Sudeste 8 Este 0 -- -- 55
2019-09-18 21:00:00 23.3 3 Este 10 Este 0 -- -- 52
2019-09-18 20:00:00 25.3 6 Este 12 Sudeste 0 -- -- 46
2019-09-18 19:00:00 27.5 3 Noroeste 15 Este 0 -- -- 40
2019-09-18 18:00:00 27.4 7 Nordeste 17 Nordeste 0 -- -- 40
2019-09-18 17:00:00 27.6 5 Oeste 16 Norte 0 -- -- 40
2019-09-18 16:00:00 26.8 7 Norte 15 Norte 0 -- -- 42
2019-09-18 15:00:00 26.1 8 Noroeste 14 Norte 0 -- -- 44
2019-09-18 14:00:00 26 7 Norte 12 Noroeste 0 -- -- 42
2019-09-18 13:00:00 25.3 4 Noroeste 10 Noroeste 0 -- -- 41
2019-09-18 12:00:00 24.5 3 Sur 9 Sur 0 -- -- 39
2019-09-18 11:00:00 22.1 2 Norte 6 Norte 0 -- -- 55
2019-09-18 10:00:00 20.2 2 Nordeste 5 Nordeste 0 -- -- 63
2019-09-18 09:00:00 17 0 Calma 6 Sur 0 -- -- 76
2019-09-18 08:00:00 13.9 4 Sur 8 Sur 0 -- -- 86
2019-09-18 07:00:00 13.7 0 Calma 3 Nordeste 0 -- -- 89
2019-09-18 06:00:00 13.9 0 Calma 4 Oeste 0 -- -- 87
2019-09-18 05:00:00 14.5 0 Calma 11 Sur 0 -- -- 82
2019-09-18 04:00:00 15.6 4 Sur 10 Sur 0 -- -- 78
2019-09-18 03:00:00 15.9 5 Sudeste 11 Sur 0 -- -- 76
2019-09-18 02:00:00 16.4 4 Sudeste 7 Sudeste 0 -- -- 76
2019-09-18 01:00:00 16.9 3 Sudoeste 19 Oeste 0 -- -- 71
2019-09-18 00:00:00 17.4 7 Oeste 17 Oeste 0 -- -- 74
2019-09-17 23:00:00 18.4 4 Oeste 9 Oeste 0 -- -- 68
2019-09-17 22:00:00 19.9 3 Oeste 14 Sudoeste 0 -- -- 59
2019-09-17 21:00:00 20.9 3 Norte 11 Oeste 0 -- -- 63
2019-09-15 18:00:00 -- -- -- -- -- -- -- -- --
2019-09-15 17:00:00 24.6 3 Norte 12 Sur 0 -- -- 60
2019-09-15 16:00:00 23.7 6 Sur 14 Sudeste 0.4 -- -- 63
2019-09-15 15:00:00 22.7 5 Sudeste 13 Sudeste 0.4 -- -- 77
2019-09-15 14:00:00 19.8 6 Sudeste 18 Sudeste 0.4 -- -- 89
2019-09-15 13:00:00 19.9 10 Sudeste 22 Sudeste 0.4 -- -- 87
2019-09-15 12:00:00 19.1 7 Sudeste 18 Sudeste 0.2 -- -- 91
2019-09-15 11:00:00 18.3 10 Sudeste 24 Este 0.2 -- -- 89
2019-09-15 10:00:00 17.8 5 Sudeste 13 Este 0.2 -- -- 88
2019-09-15 09:00:00 16 6 Sudeste 26 Sudeste 2.8 -- -- 97
2019-09-15 08:00:00 16 5 Sur 17 Sur 1.8 -- -- 95
2019-09-15 07:00:00 15.6 10 Este 24 Este 0.4 -- -- 95
2019-09-15 06:00:00 15.6 8 Este 14 Este 2 -- -- 97
2019-09-15 05:00:00 15.1 4 Este 18 Este 5.2 -- -- 97
2019-09-15 04:00:00 14.7 12 Este 24 Sudoeste 13.6 -- -- 95
2019-09-15 03:00:00 17.4 12 Este 35 Nordeste 0 -- -- 91
2019-09-15 02:00:00 16.7 10 Nordeste 30 Sudeste 0.2 -- -- 90
2019-09-15 01:00:00 15.8 4 Nordeste 21 Este 0 -- -- 95
2019-09-15 00:00:00 15.5 5 Norte 10 Norte 0 -- -- 97
2019-09-14 23:00:00 15.3 4 Noroeste 9 Noroeste 0 -- -- 97
2019-09-14 22:00:00 15.6 5 Norte 12 Nordeste 0 -- -- 96
2019-09-14 21:00:00 15.9 5 Norte 14 Norte 0.2 -- -- 94
2019-09-14 20:00:00 16.8 6 Norte 13 Nordeste 0.4 -- -- 90
2019-09-14 19:00:00 18.2 12 Nordeste 21 Nordeste 0 -- -- 79
2019-09-14 18:00:00 18.1 13 Nordeste 20 Este 0 -- -- 78
2019-09-14 17:00:00 17.4 5 Este 38 Este 0.2 -- -- 80
2019-09-14 16:00:00 15.8 17 Este 34 Este 3.4 -- -- 88
2019-09-14 15:00:00 15.1 15 Este 39 Este 3.6 -- -- 91
2019-09-14 14:00:00 17.6 6 Este 22 Este 0.2 -- -- 85
2019-09-14 13:00:00 16.1 10 Este 28 Este 0.2 -- -- 91
2019-09-14 12:00:00 15.1 10 Nordeste 21 Este 2.2 -- -- 91
2019-09-14 11:00:00 15.6 10 Este 25 Este 0 -- -- 83
2019-09-14 10:00:00 16.1 10 Nordeste 20 Nordeste 0 -- -- 78
2019-09-14 09:00:00 15.4 6 Norte -- -- 0 -- -- 82
2019-09-14 08:00:00 14.9 5 Este 12 Nordeste 0 -- -- 85
2019-09-14 07:00:00 15.7 10 Nordeste 25 Nordeste 0 -- -- 82
2019-09-14 06:00:00 -- -- -- -- -- -- -- -- --
2019-09-14 05:00:00 14.8 3 Noroeste 7 Noroeste 0 -- -- 92
2019-09-14 04:00:00 15.3 4 Norte 9 Norte 0 -- -- 89
2019-09-14 03:00:00 16.1 4 Noroeste 16 Sudeste 0 -- -- 85
2019-09-14 02:00:00 16.6 4 Nordeste 20 Sudeste 0 -- -- 86
2019-09-14 01:00:00 17.2 12 Este 28 Sudeste 0 -- -- 86
2019-09-14 00:00:00 17.6 13 Nordeste 38 Este 0 -- -- 85
2019-09-13 23:00:00 17.3 12 Este 25 Este 0 -- -- 90
2019-09-13 22:00:00 16.8 6 Nordeste 9 Norte 0 -- -- 93
2019-09-13 21:00:00 16.6 6 Nordeste 9 Nordeste 0 -- -- 91
2019-09-13 20:00:00 15.7 8 Nordeste 34 Este 3.8 -- -- 86
2019-09-13 19:00:00 17 17 Nordeste 31 Nordeste 0.2 -- -- 84
2019-09-13 18:00:00 18.1 18 Nordeste 36 Nordeste 0 -- -- 75
2019-09-13 17:00:00 18.4 22 Nordeste 41 Nordeste 0 -- -- 69
2019-09-13 16:00:00 18.1 22 Nordeste 37 Nordeste 0 -- -- 72
2019-09-13 15:00:00 16.4 15 Este 30 Nordeste 0.8 -- -- 84
2019-09-13 14:00:00 15 21 Nordeste 40 Este 0.8 -- -- 87
2019-09-13 13:00:00 19.3 19 Este 37 Este 0 -- -- 54
2019-09-13 12:00:00 17.6 4 Nordeste 10 Norte 0 -- -- 59
2019-09-13 11:00:00 17.1 3 Norte 11 Noroeste 0 -- -- 67
2019-09-13 10:00:00 16.5 3 Noroeste 12 Noroeste 0 -- -- 71
2019-09-13 09:00:00 16.3 3 Nordeste 5 Nordeste 0 -- -- 60
2019-09-13 08:00:00 15.9 0 Calma 4 Nordeste 0 -- -- 57
2019-09-13 07:00:00 16.2 0 Calma 11 Norte 0 -- -- 57
2019-09-13 06:00:00 16.5 8 Nordeste 17 Sudeste 0 -- -- 56
2019-09-13 05:00:00 19 8 Este 23 Este 0 -- -- 40
2019-09-13 04:00:00 19.3 11 Este 25 Nordeste 0 -- -- 38
2019-09-13 03:00:00 18.6 15 Nordeste 33 Este 0 -- -- 46
2019-09-13 02:00:00 19.6 19 Este 38 Nordeste 0 -- -- 37
2019-09-13 01:00:00 19.7 23 Este 45 Este 0 -- -- 50
2019-09-13 00:00:00 20.9 18 Sudeste 33 Sudeste 0 -- -- 49
2019-09-12 23:00:00 21.2 13 Sudeste 26 Sudeste 0 -- -- 51
2019-09-12 22:00:00 21.9 10 Sudeste 25 Este 0 -- -- 50
2019-09-12 21:00:00 22.7 10 Este 27 Este 0 -- -- 49
2019-09-12 20:00:00 23.8 13 Nordeste 28 Este 0 -- -- 46
2019-09-12 19:00:00 24.8 13 Este 37 Este 0 -- -- 43
2019-09-12 18:00:00 24.6 14 Este 33 Nordeste 0 -- -- 45
2019-09-12 17:00:00 22.9 18 Este 34 Este 0 -- -- 47
2019-09-12 16:00:00 23 18 Este 44 Este 0 -- -- 46
2019-09-12 15:00:00 24.7 19 Nordeste 45 Nordeste 0 -- -- 41
2019-09-12 14:00:00 24.5 16 Este 34 Nordeste 0 -- -- 44
2019-09-12 13:00:00 22.1 19 Este 38 Este 0 -- -- 49
2019-09-12 12:00:00 21.2 12 Nordeste 33 Este 0 -- -- 48
2019-09-12 11:00:00 20 10 Norte 18 Norte 0 -- -- 49
2019-09-12 10:00:00 17.9 6 Norte 12 Nordeste 0 -- -- 52
2019-09-12 09:00:00 15.4 0 Calma 7 Oeste 0 -- -- 58
2019-09-12 08:00:00 12.9 3 Noroeste 12 Norte 0 -- -- 64
2019-09-12 07:00:00 13.3 5 Norte 14 Norte 0 -- -- 63
2019-09-12 06:00:00 13.9 8 Norte 14 Nordeste 0 -- -- 61
2019-09-12 05:00:00 13 7 Norte 12 Norte 0 -- -- 66
2019-09-12 04:00:00 13.6 7 Norte 11 Norte 0 -- -- 74
2019-09-12 03:00:00 13.9 5 Noroeste 6 Noroeste 0 -- -- 74
2019-09-12 02:00:00 15.4 3 Sudoeste 6 Sudeste 0 -- -- 67
2019-09-12 01:00:00 17.2 4 Este 24 Nordeste 0 -- -- 63
2019-09-12 00:00:00 18 13 Este 27 Este 0 -- -- 59
2019-09-11 23:00:00 17.9 9 Este 27 Sudeste 0 -- -- 60
2019-09-11 22:00:00 18.7 16 Sudeste 41 Nordeste 0 -- -- 54
2019-09-11 21:00:00 21.5 18 Nordeste 45 Nordeste 0 -- -- 37
2019-09-11 20:00:00 22.6 22 Nordeste 45 Nordeste 0 -- -- 35
2019-09-11 19:00:00 23.6 24 Nordeste 43 Nordeste 0 -- -- 33
2019-09-11 18:00:00 25 27 Nordeste 49 Nordeste 0 -- -- 31
2019-09-11 17:00:00 24.6 29 Nordeste 52 Nordeste 0 -- -- 31
2019-09-11 16:00:00 24.5 33 Nordeste 56 Nordeste 0 -- -- 32
2019-09-11 15:00:00 23.5 31 Nordeste 54 Nordeste 0 -- -- 33
2019-09-11 14:00:00 22.9 26 Norte 50 Nordeste 0 -- -- 34
2019-09-11 13:00:00 21.3 28 Norte 52 Nordeste 0 -- -- 38
2019-09-11 12:00:00 19.6 28 Norte 44 Norte 0 -- -- 43
2019-09-11 11:00:00 17.2 20 Norte 35 Norte 0 -- -- 51
2019-09-11 10:00:00 15.4 19 Noroeste 28 Noroeste 0 -- -- 56
2019-09-11 09:00:00 12.8 14 Noroeste 22 Noroeste 0 -- -- 62
2019-09-11 08:00:00 11.2 15 Noroeste 26 Noroeste 0 -- -- 66
2019-09-11 07:00:00 11.2 12 Noroeste 19 Noroeste 0 -- -- 66
2019-09-11 06:00:00 11.5 10 Noroeste 17 Noroeste 0 -- -- 64
2019-09-11 05:00:00 11.6 9 Noroeste 20 Noroeste 0 -- -- 63
2019-09-11 04:00:00 13 10 Noroeste 17 Noroeste 0 -- -- 59
2019-09-11 03:00:00 12.2 8 Noroeste 15 Norte 0 -- -- 60
2019-09-11 02:00:00 12.7 10 Noroeste 16 Noroeste 0 -- -- 60
2019-09-11 01:00:00 13.5 10 Noroeste 23 Norte 0 -- -- 58
2019-09-11 00:00:00 14.2 12 Noroeste 26 Noroeste 0 -- -- 55
2019-09-10 23:00:00 14.9 20 Noroeste 37 Norte 0 -- -- 53
2019-09-10 22:00:00 15.9 19 Norte 34 Noroeste 0 -- -- 50
2019-09-10 21:00:00 15.7 19 Norte 39 Norte 0 -- -- 50
2019-09-10 20:00:00 16.8 22 Norte 49 Norte 0 -- -- 43
2019-09-10 19:00:00 19.3 26 Norte 46 Norte 0 -- -- 33
2019-09-10 18:00:00 21 29 Noroeste 48 Noroeste 0 -- -- 28
2019-09-10 17:00:00 21.1 27 Noroeste 46 Noroeste 0 -- -- 27
2019-09-10 16:00:00 20.8 19 Noroeste 39 Noroeste 0 -- -- 28
2019-09-10 15:00:00 20 17 Noroeste 35 Norte 0 -- -- 31
2019-09-10 14:00:00 20.2 18 Norte 37 Noroeste 0 -- -- 27
2019-09-10 13:00:00 19.3 19 Noroeste 39 Noroeste 0 -- -- 30
2019-09-10 12:00:00 18.1 19 Norte 39 Norte 0 -- -- 37
2019-09-10 11:00:00 17.6 18 Norte 39 Noroeste 0 -- -- 40
2019-09-10 10:00:00 16.7 26 Noroeste 40 Noroeste 0 -- -- 43
2019-09-10 09:00:00 14.9 17 Noroeste 32 Noroeste 0 -- -- 57
2019-09-10 08:00:00 14.7 16 Noroeste 24 Noroeste 0 -- -- 58
2019-09-10 07:00:00 15.1 10 Noroeste 23 Noroeste 0 -- -- 55
2019-09-10 06:00:00 15.7 13 Noroeste 23 Noroeste 0 -- -- 50
2019-09-10 05:00:00 16.4 9 Noroeste 24 Noroeste 0 -- -- 47
2019-09-10 04:00:00 17 10 Noroeste 17 Noroeste 0 -- -- 42
2019-09-10 03:00:00 17.8 4 Oeste 10 Sudoeste 0 -- -- 30
2019-09-10 02:00:00 18.9 5 Sudoeste 16 Sudoeste 0 -- -- 28
2019-09-10 01:00:00 20.3 7 Sudoeste 14 Oeste 0 -- -- 26
2019-09-10 00:00:00 21.5 7 Oeste 15 Sudoeste 0 -- -- 24
2019-09-09 23:00:00 23.1 10 Sudoeste 22 Sudoeste 0 -- -- 22
2019-09-09 22:00:00 24.4 13 Oeste 30 Oeste 0 -- -- 20
2019-09-09 21:00:00 25.7 15 Oeste 33 Oeste 0 -- -- 18
2019-09-09 20:00:00 26.8 19 Oeste 35 Oeste 0 -- -- 17
2019-09-09 19:00:00 28.3 23 Oeste 42 Oeste 0 -- -- 16
2019-09-09 18:00:00 29.3 22 Oeste 38 Sudoeste 0 -- -- 15
2019-09-09 17:00:00 29.6 17 Oeste 39 Sudoeste 0 -- -- 19
2019-09-09 16:00:00 29.7 19 Sudoeste 40 Sudoeste 0 -- -- 16
2019-09-09 15:00:00 29.1 23 Sudoeste 41 Sudoeste 0 -- -- 18
2019-09-09 14:00:00 28.8 18 Sudoeste 31 Sudoeste 0 -- -- 23
2019-09-09 13:00:00 27.3 9 Noroeste 32 Noroeste 0 -- -- 29
2019-09-09 12:00:00 26.3 12 Oeste 22 Oeste 0 -- -- 29
2019-09-09 11:00:00 25.5 5 Sudoeste 9 Sudoeste 0 -- -- 31
2019-09-09 10:00:00 23.3 3 Sur 8 Sur 0 -- -- 39
2019-09-09 09:00:00 18.7 5 Sur 8 Sudeste 0 -- -- 49
2019-09-09 08:00:00 16.3 3 Sur 9 Sur 0 -- -- 57
2019-09-09 07:00:00 17 2 Sudeste 6 Sudeste 0 -- -- 54
2019-09-09 06:00:00 19.3 5 Sudoeste 9 Sudoeste 0 -- -- 49
2019-09-09 05:00:00 19 3 Sudoeste 8 Sudoeste 0 -- -- 50
2019-09-09 04:00:00 19.5 0 Calma 9 Sudoeste 0 -- -- 49
2019-09-09 03:00:00 19.9 3 Sur 9 Sudeste 0 -- -- 49
2019-09-09 02:00:00 20.6 4 Sur 11 Sur 0 -- -- 47
2019-09-09 01:00:00 20.8 7 Sudeste 11 Sur 0 -- -- 50
2019-09-09 00:00:00 21.7 6 Sudeste 11 Sur 0 -- -- 49
2019-09-08 23:00:00 22.5 5 Sudeste 12 Sudeste 0 -- -- 49
2019-09-08 22:00:00 23.6 5 Sur 15 Sur 0 -- -- 47
2019-09-08 21:00:00 25.3 5 Sur 15 Sudoeste 0 -- -- 40
2019-09-08 20:00:00 27.7 8 Oeste 15 Oeste 0 -- -- 33
2019-09-08 19:00:00 27.8 9 Oeste 18 Oeste 0 -- -- 34
2019-09-08 18:00:00 29.1 4 Noroeste 15 Noroeste 0 -- -- 31
2019-09-08 17:00:00 28.5 7 Noroeste 17 Oeste 0 -- -- 36
2019-09-08 16:00:00 27.6 3 Sudeste 17 Noroeste 0 -- -- 40
2019-09-08 15:00:00 26.9 9 Norte 17 Norte 0 -- -- 45
2019-09-08 14:00:00 25.8 5 Norte 15 Norte 0 -- -- 49
2019-09-08 13:00:00 23.2 4 Noroeste 12 Norte 0 -- -- 57
2019-09-08 12:00:00 22.2 6 Norte 15 Noroeste 0 -- -- 60
2019-09-08 11:00:00 20.6 4 Oeste 8 Sudoeste 0 -- -- 67
2019-09-08 10:00:00 19.9 3 Noroeste 9 Noroeste 0 -- -- 70
2019-09-08 09:00:00 17.3 3 Noroeste 7 Sudeste 0 -- -- 78
2019-09-08 08:00:00 16.5 4 Sudeste 16 Sudeste 0 -- -- 81
2019-09-08 07:00:00 17 8 Sur 22 Este 0 -- -- 79
2019-09-08 06:00:00 17.3 13 Sudeste 28 Sudeste 0 -- -- 78
2019-09-08 05:00:00 17.8 13 Sudeste 28 Este 0 -- -- 77
2019-09-08 04:00:00 18.3 15 Este 32 Este 0 -- -- 76
2019-09-08 03:00:00 19.2 17 Este 32 Este 0 -- -- 73
2019-09-08 02:00:00 20.6 5 Nordeste 20 Nordeste 0 -- -- 65
2019-09-08 01:00:00 22.3 4 Este 18 Sudeste 0 -- -- 54
2019-09-08 00:00:00 23.4 8 Este 17 Sudeste 0 -- -- 46
2019-09-07 23:00:00 23.2 4 Nordeste 6 Nordeste 0 -- -- 38
2019-09-07 22:00:00 24.2 4 Nordeste 11 Norte 0 -- -- 37
2019-09-07 21:00:00 25.5 8 Norte 18 Norte 0 -- -- 34
2019-09-07 20:00:00 27.5 12 Norte 21 Norte 0 -- -- 32
2019-09-07 19:00:00 28.6 6 Nordeste 20 Norte 0 -- -- 30
2019-09-07 18:00:00 28.9 7 Norte 15 Nordeste 0 -- -- 30
2019-09-07 17:00:00 29.2 10 Norte 22 Norte 0 -- -- 32
2019-09-07 16:00:00 28.3 7 Este 20 Nordeste 0 -- -- 35
2019-09-07 15:00:00 27.1 9 Norte 18 Nordeste 0 -- -- 42
2019-09-07 14:00:00 25.6 8 Nordeste 20 Nordeste 0 -- -- 48
2019-09-07 13:00:00 23.7 12 Nordeste 32 Este 0 -- -- 56
2019-09-07 12:00:00 21.6 9 Nordeste 19 Nordeste 0 -- -- 63
2019-09-07 11:00:00 18.3 11 Nordeste 19 Nordeste 0 -- -- 51
2019-09-07 10:00:00 16.6 9 Norte 14 Norte 0 -- -- 50
2019-09-07 09:00:00 16.8 6 Norte 10 Noroeste 0 -- -- 50
2019-09-07 08:00:00 17.1 4 Norte 12 Norte 0 -- -- 52
2019-09-07 07:00:00 16.8 4 Noroeste 7 Noroeste 0 -- -- 53
2019-09-07 06:00:00 16.6 4 Norte 8 Norte 0 -- -- 51
2019-09-07 05:00:00 15.8 5 Norte 10 Norte 0 -- -- 43
2019-09-07 04:00:00 15.6 0 Calma 7 Norte 0 -- -- 42
2019-09-07 03:00:00 16.4 2 Noroeste 12 Nordeste 0 -- -- 40
2019-09-07 02:00:00 16.6 6 Norte 20 Nordeste 0 -- -- 39
2019-09-07 01:00:00 17.9 5 Este 15 Este 0 -- -- 32
2019-09-07 00:00:00 18.5 3 Sudeste 7 Sur 0 -- -- 28
2019-09-06 23:00:00 19.3 0 Calma 2 Oeste 0 -- -- 26
2019-09-06 22:00:00 21.1 0 Calma 6 Noroeste 0 -- -- 25
2019-09-06 21:00:00 22.8 4 Noroeste 14 Norte 0 -- -- 22
2019-09-06 20:00:00 25.8 8 Norte 18 Noroeste 0 -- -- 18
2019-09-06 19:00:00 26.2 9 Noroeste 23 Noroeste 0 -- -- 18
2019-09-06 18:00:00 26.8 8 Norte 22 Noroeste 0 -- -- 20
2019-09-06 17:00:00 26.5 8 Noroeste 21 Noroeste 0 -- -- 24
2019-09-06 16:00:00 25.6 7 Norte 20 Oeste 0 -- -- 28
2019-09-06 15:00:00 24.4 8 Norte 16 Norte 0 -- -- 33
2019-09-06 14:00:00 22.9 4 Norte 14 Noroeste 0 -- -- 37
2019-09-06 13:00:00 20.6 8 Norte 19 Norte 0 -- -- 41
2019-09-06 12:00:00 18.5 6 Norte 15 Noroeste 0 -- -- 42
2019-09-06 11:00:00 16.6 6 Noroeste 15 Noroeste 0 -- -- 46
2019-09-06 10:00:00 14.9 8 Norte 17 Norte 0 -- -- 50
2019-09-06 09:00:00 13 7 Noroeste 9 Noroeste 0 -- -- 54
2019-09-06 08:00:00 10.7 6 Oeste 10 Oeste 0 -- -- 60
2019-09-06 07:00:00 10.5 3 Noroeste 8 Oeste 0 -- -- 58
2019-09-06 06:00:00 12.1 5 Norte 14 Norte 0 -- -- 52
2019-09-06 05:00:00 13.2 9 Norte 14 Norte 0 -- -- 48
2019-09-06 04:00:00 14.1 4 Norte 18 Norte 0 -- -- 45
2019-09-06 03:00:00 15.3 9 Norte 21 Nordeste 0 -- -- 44
2019-09-06 02:00:00 16.6 14 Norte 25 Norte 0 -- -- 44
2019-09-06 01:00:00 18 14 Nordeste 21 Norte 0 -- -- 40
2019-09-06 00:00:00 19.4 11 Nordeste 25 Nordeste 0 -- -- 33
2019-09-05 23:00:00 21 14 Nordeste 26 Nordeste 0 -- -- 29
2019-09-05 22:00:00 22.8 11 Nordeste 18 Nordeste 0 -- -- 25
2019-09-05 21:00:00 24.7 9 Nordeste 22 Norte 0 -- -- 23
2019-09-05 20:00:00 26.8 13 Nordeste 27 Norte 0 -- -- 22
2019-09-05 19:00:00 27.6 17 Norte 35 Nordeste 0 -- -- 22
2019-09-05 18:00:00 28.6 14 Norte 34 Norte 0 -- -- 25
2019-09-05 17:00:00 28.8 15 Norte 30 Noroeste 0 -- -- 27
2019-09-05 16:00:00 28.8 17 Norte 30 Noroeste 0 -- -- 28
2019-09-05 15:00:00 28 13 Norte 24 Nordeste 0 -- -- 34
2019-09-05 14:00:00 26.4 11 Norte 24 Nordeste 0 -- -- 41
2019-09-05 13:00:00 24.9 15 Nordeste 28 Nordeste 0 -- -- 43
2019-09-05 12:00:00 22.7 14 Norte 25 Norte 0 -- -- 42
2019-09-05 11:00:00 20.8 13 Norte 23 Nordeste 0 -- -- 45
2019-09-05 10:00:00 20 14 Nordeste 25 Norte 0 -- -- 41
2019-09-05 09:00:00 18.4 14 Norte 24 Norte 0 -- -- 45
2019-09-05 08:00:00 16.8 5 Norte 14 Norte 0 -- -- 58
2019-09-05 07:00:00 17 6 Norte 11 Norte 0 -- -- 56
2019-09-05 06:00:00 17.9 6 Norte 10 Noroeste 0 -- -- 53
2019-09-05 05:00:00 18.8 4 Oeste 16 Nordeste 0 -- -- 49
2019-09-05 04:00:00 20.9 11 Nordeste 18 Nordeste 0 -- -- 47
2019-09-05 03:00:00 20.6 0 Calma 15 Nordeste 0 -- -- 38
2019-09-05 02:00:00 21.4 6 Norte 11 Nordeste 0 -- -- 33
2019-09-05 01:00:00 22 4 Norte 9 Sur 0 -- -- 24
2019-09-05 00:00:00 24.7 2 Sudoeste 7 Sudeste 0 -- -- 19
2019-09-04 23:00:00 25.6 5 Sur 9 Sur 0 -- -- 18
2019-09-04 22:00:00 27.1 3 Oeste 6 Oeste 0 -- -- 21
2019-09-04 21:00:00 29.3 5 Noroeste 15 Noroeste 0 -- -- 18
2019-09-04 20:00:00 32 10 Noroeste 26 Noroeste 0 -- -- 17
2019-09-04 19:00:00 33.4 9 Noroeste 22 Noroeste 0 -- -- 19
2019-09-04 18:00:00 33.2 11 Noroeste 23 Noroeste 0 -- -- 21
2019-09-04 17:00:00 32.7 12 Oeste 27 Nordeste 0 -- -- 22
2019-09-04 16:00:00 32.7 10 Noroeste 24 Noroeste 0 -- -- 24
2019-09-04 15:00:00 31.7 9 Noroeste 21 Noroeste 0 -- -- 26
2019-09-04 14:00:00 31.2 7 Norte 21 Norte 0 -- -- 31
2019-09-04 13:00:00 30.3 3 Norte 12 Norte 0 -- -- 34
2019-09-04 12:00:00 28.8 4 Este 9 Nordeste 0 -- -- 40
2019-09-04 11:00:00 27 3 Este 6 Este 0 -- -- 47
2019-09-04 10:00:00 24.7 0 Calma 5 Noroeste 0 -- -- 54
2019-09-04 09:00:00 22.1 2 Sur 6 Sudoeste 0 -- -- 66
2019-09-04 08:00:00 19.1 2 Sur 6 Sur 0 -- -- 67
2019-09-04 07:00:00 19.6 3 Sur 7 Sur 0 -- -- 60
2019-09-04 06:00:00 20.8 3 Sudeste 11 Sudeste 0 -- -- 45
2019-09-04 05:00:00 21 5 Sudeste 9 Sudeste 0 -- -- 38
2019-09-04 04:00:00 22.1 3 Sudeste 5 Sudeste 0 -- -- 36
2019-09-04 03:00:00 23.1 4 Sudeste 8 Sudeste 0 -- -- 34
2019-09-04 02:00:00 23.2 2 Oeste 6 Noroeste 0 -- -- 34
2019-09-04 01:00:00 23.5 3 Noroeste 5 Norte 0 -- -- 34
2019-09-04 00:00:00 25.8 5 Norte 20 Noroeste 0 -- -- 30
2019-09-03 23:00:00 27.1 4 Sudoeste 17 Noroeste 0 -- -- 34
2019-09-03 22:00:00 28.5 0 Calma 6 Nordeste 0 -- -- 32
2019-09-03 21:00:00 29.8 5 Norte 10 Norte 0 -- -- 30
2019-09-03 20:00:00 31.9 9 Noroeste 17 Norte 0 -- -- 27
2019-09-03 19:00:00 33.2 9 Norte 20 Noroeste 0 -- -- 27
2019-09-03 18:00:00 32.7 9 Oeste 20 Norte 0 -- -- 28
2019-09-03 17:00:00 32.5 14 Noroeste 26 Norte 0 -- -- 29
2019-09-03 16:00:00 31.5 10 Norte 24 Norte 0 -- -- 31
2019-09-03 15:00:00 32.3 4 Noroeste 11 Noroeste 0 -- -- 32
2019-09-03 14:00:00 30.7 7 Sudoeste 13 Oeste 0 -- -- 34
2019-09-03 13:00:00 29.4 5 Este 16 Este 0 -- -- 44
2019-09-03 12:00:00 27.2 6 Este 15 Nordeste 0 -- -- 51
2019-09-03 11:00:00 24.4 8 Sudeste 19 Sudeste 0 -- -- 61
2019-09-03 10:00:00 22.9 10 Sudeste 17 Sudeste 0 -- -- 67
2019-09-03 09:00:00 21.5 5 Sur 16 Este 0 -- -- 73
2019-09-03 08:00:00 19.4 6 Sudeste 12 Este 0 -- -- 82
2019-09-03 07:00:00 19.7 4 Sudeste 17 Sudeste 0 -- -- 80
2019-09-03 06:00:00 20.4 6 Sudeste 15 Sudeste 0 -- -- 76
2019-09-03 05:00:00 21.1 4 Sudeste 20 Sudeste 0 -- -- 70
2019-09-03 04:00:00 21.9 10 Sudeste 26 Sudeste 0 -- -- 64
2019-09-03 03:00:00 22.7 11 Sudeste 23 Este 0 -- -- 59
2019-09-03 02:00:00 24.3 7 Sudeste 22 Sudeste 0 -- -- 48
2019-09-03 01:00:00 23.3 0 Calma 7 Nordeste 0 -- -- 49
2019-09-03 00:00:00 25.2 4 Sudeste 9 Este 0 -- -- 45
2019-09-02 23:00:00 25.5 4 Sudeste 12 Sur 0 -- -- 46
2019-09-02 22:00:00 26.4 5 Sur 16 Sudeste 0 -- -- 43
2019-09-02 21:00:00 28.4 7 Sur 16 Sur 0 -- -- 37
2019-09-02 20:00:00 31.3 7 Nordeste 19 Nordeste 0 -- -- 33
2019-09-02 19:00:00 32 10 Norte 21 Noroeste 0 -- -- 31
2019-09-02 18:00:00 32.2 9 Nordeste 25 Norte 0 -- -- 29
2019-09-02 17:00:00 32.4 6 Norte 19 Norte 0 -- -- 32
2019-09-02 16:00:00 30.8 10 Nordeste 24 Nordeste 0 -- -- 38
2019-09-02 15:00:00 30 8 Nordeste 23 Nordeste 0 -- -- 41
2019-09-02 14:00:00 28.1 12 Nordeste 24 Nordeste 0 -- -- 45
2019-09-02 13:00:00 26.9 9 Nordeste 17 Nordeste 0 -- -- 50
2019-09-02 12:00:00 25.1 11 Nordeste 22 Este 0 -- -- 55
2019-09-02 11:00:00 24.2 8 Este 19 Este 0 -- -- 57
2019-09-02 10:00:00 22.6 12 Este 22 Este 0 -- -- 62
2019-09-02 09:00:00 19 4 Norte 7 Norte 0 -- -- 75
2019-09-02 08:00:00 17.6 2 Noroeste 5 Oeste 0 -- -- 79
2019-09-02 07:00:00 18.2 3 Oeste 8 Noroeste 0 -- -- 78
2019-09-02 06:00:00 18.5 2 Noroeste 10 Noroeste 0 -- -- 76
2019-09-02 05:00:00 19.3 5 Norte 14 Noroeste 0 -- -- 73
2019-09-02 04:00:00 20.3 10 Noroeste 18 Noroeste 0 -- -- 69
2019-09-02 03:00:00 22.6 5 Norte 12 Norte 0 -- -- 56
2019-09-02 02:00:00 23.5 5 Norte 12 Norte 0 -- -- 52
2019-09-02 01:00:00 24.3 5 Norte 9 Norte 0 -- -- 49
2019-09-02 00:00:00 24.7 3 Noroeste 7 Noroeste 0 -- -- 49
2019-09-01 23:00:00 26.1 3 Este 16 Norte 0 -- -- 43
2019-09-01 22:00:00 27.3 4 Sudoeste 9 Sur 0 -- -- 38
2019-09-01 21:00:00 27.9 0 Calma 11 Nordeste 0 -- -- 36
2019-09-01 20:00:00 27.7 10 Nordeste 33 Oeste 0 -- -- 37
2019-09-01 19:00:00 29.9 8 Norte 22 Norte 0 -- -- 33
2019-09-01 18:00:00 32 3 Norte 13 Noroeste 0 -- -- 27
2019-09-01 17:00:00 31.9 9 Noroeste 19 Norte 0 -- -- 27
2019-09-01 16:00:00 32.3 8 Oeste 24 Oeste 0 -- -- 27
2019-09-01 15:00:00 32.8 7 Este 19 Nordeste 0 -- -- 26
2019-09-01 14:00:00 32.5 9 Noroeste 20 Oeste 0 -- -- 26
2019-09-01 13:00:00 32.2 7 Norte 17 Noroeste 0 -- -- 29
2019-09-01 12:00:00 30.7 5 Norte 9 Nordeste 0 -- -- 30
2019-09-01 11:00:00 29.8 2 Sur 6 Noroeste 0 -- -- 31
2019-09-01 10:00:00 27.9 3 Noroeste 7 Sudeste 0 -- -- 34
2019-09-01 09:00:00 23.9 4 Sudeste 5 Sudeste 0 -- -- 40
2019-09-01 08:00:00 21.1 3 Sur 8 Sudoeste 0 -- -- 45
2019-09-01 07:00:00 21.5 5 Sudoeste 12 Sur 0 -- -- 43
2019-09-01 06:00:00 21.9 4 Sur 15 Oeste 0 -- -- 41
2019-09-01 05:00:00 23 6 Sur 14 Sur 0 -- -- 37
2019-09-01 04:00:00 23.3 8 Sur 15 Sur 0 -- -- 36
2019-09-01 03:00:00 24.1 6 Sur 11 Sur 0 -- -- 34
2019-09-01 02:00:00 24.7 4 Sur 10 Sur 0 -- -- 31
2019-09-01 01:00:00 25.6 7 Sur 13 Sur 0 -- -- 30
2019-09-01 00:00:00 25.9 5 Sur 10 Sudoeste 0 -- -- 29
2019-08-31 23:00:00 26.8 5 Sur 9 Sur 0 -- -- 28
2019-08-31 22:00:00 28.6 2 Este 7 Nordeste 0 -- -- 24
2019-08-31 21:00:00 30 4 Nordeste 10 Nordeste 0 -- -- 24
2019-08-31 20:00:00 31.7 7 Norte 16 Nordeste 0 -- -- 22
2019-08-31 19:00:00 33.4 8 Norte 16 Norte 0 -- -- 21
2019-08-31 18:00:00 33.2 8 Noroeste 21 Nordeste 0 -- -- 21
2019-08-31 17:00:00 32.7 8 Nordeste 18 Este 0 -- -- 23
2019-08-31 16:00:00 32.7 6 Noroeste 20 Norte 0 -- -- 24
2019-08-31 15:00:00 31.6 10 Nordeste 20 Nordeste 0 -- -- 28
2019-08-31 14:00:00 30.7 6 Norte 22 Nordeste 0 -- -- 30
2019-08-31 13:00:00 29.9 6 Sudeste 13 Sudeste 0 -- -- 32
2019-08-31 12:00:00 28.7 7 Sudeste 14 Sur 0 -- -- 37
2019-08-31 11:00:00 26.4 5 Sur 15 Sudeste 0 -- -- 43
2019-08-31 10:00:00 25.2 7 Sudeste 14 Sudeste 0 -- -- 47
2019-08-31 09:00:00 21.1 5 Sur 12 Sur 0 -- -- 61
2019-08-31 08:00:00 18.3 5 Sudeste 8 Sudeste 0 -- -- 66
2019-08-31 07:00:00 18.2 3 Sur 9 Sudeste 0 -- -- 59
2019-08-31 06:00:00 18.4 2 Sudoeste 8 Nordeste 0 -- -- 66
2019-08-31 05:00:00 20.7 0 Calma 9 Sudeste 0 -- -- 54
2019-08-31 04:00:00 22.3 7 Sudeste 13 Sudeste 0 -- -- 49
2019-08-31 03:00:00 22.7 5 Sudeste 15 Sudeste 0 -- -- 46
2019-08-31 02:00:00 22.9 6 Sur 15 Sudeste 0 -- -- 46
2019-08-31 01:00:00 23.4 8 Sur 22 Sudeste 0 -- -- 45
2019-08-31 00:00:00 23.7 12 Sudeste 31 Sudeste 0 -- -- 45
2019-08-30 23:00:00 24 15 Sudeste 43 Sudeste 0 -- -- 45
2019-08-30 22:00:00 22.8 9 Nordeste 35 Nordeste 0 -- -- 55
2019-08-30 21:00:00 22.9 21 Nordeste 37 Nordeste 0 -- -- 56
2019-08-30 20:00:00 23.8 23 Nordeste 56 Nordeste 0 -- -- 56
2019-08-30 19:00:00 29.8 23 Oeste 38 Oeste 0 -- -- 30
2019-08-30 18:00:00 34.1 6 Sudoeste 29 Sudoeste 0 -- -- 24
2019-08-30 17:00:00 34.6 12 Sur 25 Sudeste 0 -- -- 23
2019-08-30 16:00:00 34.6 10 Sudeste 20 Este 0 -- -- 22
2019-08-30 15:00:00 33.5 8 Este 26 Este 0 -- -- 26
2019-08-30 14:00:00 33.1 7 Este 22 Nordeste 0 -- -- 27
2019-08-30 13:00:00 31.7 7 Este 16 Este 0 -- -- 32
2019-08-30 12:00:00 30.3 5 Este 13 Nordeste 0 -- -- 33
2019-08-30 11:00:00 28.4 4 Sudeste 10 Sudeste 0 -- -- 40
2019-08-30 10:00:00 25.3 6 Sur 15 Sudeste 0 -- -- 48
2019-08-30 09:00:00 22.4 6 Sur 15 Sur 0 -- -- 59
2019-08-30 08:00:00 19.8 5 Sudeste 19 Sudeste 0 -- -- 74
2019-08-30 07:00:00 20.7 6 Sur 14 Sur 0 -- -- 69
2019-08-30 06:00:00 21.6 3 Sudoeste 16 Sur 0 -- -- 65
2019-08-30 05:00:00 21.7 2 Sudeste 12 Sudeste 0 -- -- 54
2019-08-30 04:00:00 22.4 2 Este 12 Sur 0 -- -- 43
2019-08-30 03:00:00 23.8 6 Sur 14 Sur 0 -- -- 40
2019-08-30 02:00:00 24.5 4 Sur 9 Sur 0 -- -- 38
2019-08-30 01:00:00 25 5 Sur 10 Sudeste 0 -- -- 36
2019-08-30 00:00:00 25.6 4 Sudeste 10 Sudeste 0 -- -- 34
2019-08-29 23:00:00 25.9 0 Calma 11 Sudeste 0 -- -- 35
2019-08-29 22:00:00 27.8 4 Sur 8 Sur 0 -- -- 33
2019-08-29 21:00:00 28.4 0 Calma 23 Sudoeste 0 -- -- 34
2019-08-29 20:00:00 30.7 10 Sudoeste 23 Sudoeste 0 -- -- 27
2019-08-29 19:00:00 32.5 9 Sur 18 Sur 0 -- -- 27
2019-08-29 18:00:00 34.3 7 Este 15 Este 0 -- -- 26
2019-08-29 17:00:00 33.5 5 Este 20 Sudeste 0 -- -- 26
2019-08-29 16:00:00 33.7 6 Este 19 Sur 0 -- -- 27
2019-08-29 15:00:00 32.3 8 Sur 21 Sudeste 0 -- -- 29
2019-08-29 14:00:00 32.1 7 Este 21 Sudeste 0 -- -- 31
2019-08-29 13:00:00 29.4 6 Sudeste 19 Sudeste 0 -- -- 37
2019-08-29 12:00:00 26.9 9 Sudeste 17 Sudeste 0 -- -- 44
2019-08-29 11:00:00 25.6 5 Sudeste 16 Sudeste 0 -- -- 51
2019-08-29 10:00:00 24.3 8 Sur 20 Sur 0 -- -- 56
2019-08-29 09:00:00 21.7 11 Sudeste 17 Sudeste 0 -- -- 67
2019-08-29 08:00:00 20 6 Sudeste 10 Sudeste 0 -- -- 65
2019-08-29 07:00:00 20.6 4 Sur 11 Sudeste 0 -- -- 57
2019-08-29 06:00:00 21.4 6 Sur 10 Sur 0 -- -- 48
2019-08-29 05:00:00 22.5 4 Sudeste 8 Sudeste 0 -- -- 44
2019-08-29 04:00:00 22.6 4 Sudeste 9 Sudeste 0 -- -- 45
2019-08-29 03:00:00 23.1 4 Sudeste 9 Sur 0 -- -- 45
2019-08-29 02:00:00 23.3 5 Sur 12 Sur 0 -- -- 47
2019-08-29 01:00:00 23.7 4 Sur 6 Sur 0 -- -- 46
2019-08-29 00:00:00 23.1 3 Sudoeste 5 Sur 0 -- -- 48
2019-08-28 23:00:00 26 3 Sudeste 11 Este 0 -- -- 41
2019-08-28 22:00:00 26.9 4 Este 11 Norte 0 -- -- 35
2019-08-28 21:00:00 28 9 Norte 17 Nordeste 0 -- -- 31
2019-08-28 20:00:00 29.8 11 Norte 22 Noroeste 0 -- -- 30
2019-08-28 19:00:00 30.7 11 Noroeste 19 Noroeste 0 -- -- 29
2019-08-28 18:00:00 31.4 13 Norte 22 Norte 0 -- -- 29
2019-08-28 17:00:00 30.7 11 Nordeste 23 Norte 0 -- -- 29
2019-08-28 16:00:00 30.1 7 Noroeste 18 Nordeste 0 -- -- 30
2019-08-28 15:00:00 30 7 Sudoeste 19 Sudoeste 0 -- -- 30
2019-08-28 14:00:00 29.1 5 Norte 25 Oeste 0 -- -- 33
2019-08-28 13:00:00 28.1 5 Este 17 Nordeste 0 -- -- 36
2019-08-28 12:00:00 27.2 4 Noroeste 9 Oeste 0 -- -- 39
2019-08-28 11:00:00 26.5 3 Sudoeste 7 Sudoeste 0 -- -- 42
2019-08-28 10:00:00 24.1 3 Sur 6 Sur 0 -- -- 49
2019-08-28 09:00:00 20.7 4 Sudeste 6 Sudeste 0 -- -- 58
2019-08-28 08:00:00 17.1 5 Sudeste 8 Sur 0 -- -- 67
2019-08-28 07:00:00 17.4 5 Sur 10 Sur 0 -- -- 67
2019-08-28 06:00:00 18.4 2 Sudeste 12 Sur 0 -- -- 63
2019-08-28 05:00:00 18.5 7 Sur 12 Sur 0 -- -- 62
2019-08-28 04:00:00 19.7 3 Sudeste 9 Sur 0 -- -- 58
2019-08-28 03:00:00 20.2 6 Sur 10 Sur 0 -- -- 57
2019-08-28 02:00:00 20.1 6 Sudeste 10 Sudeste 0 -- -- 58
2019-08-28 01:00:00 20.4 5 Sur 10 Sur 0 -- -- 59
2019-08-28 00:00:00 20.9 0 Calma 3 Sur 0 -- -- 62
2019-08-27 23:00:00 22.7 0 Calma 7 Nordeste 0 -- -- 56
2019-08-27 22:00:00 23.6 3 Nordeste 11 Nordeste 0 -- -- 49
2019-08-27 21:00:00 24.5 7 Norte 22 Norte 0 -- -- 47
2019-08-27 20:00:00 26.4 13 Norte 28 Norte 0 -- -- 39
2019-08-27 19:00:00 27.2 17 Norte 27 Noroeste 0 -- -- 36
2019-08-27 18:00:00 28.1 8 Noroeste 23 Noroeste 0 -- -- 32
2019-08-27 17:00:00 27.1 9 Oeste 22 Oeste 0 -- -- 38
2019-08-27 16:00:00 26.6 7 Noroeste 20 Noroeste 0 -- -- 40
2019-08-27 15:00:00 25.6 9 Nordeste 22 Oeste 0 -- -- 46
2019-08-27 14:00:00 24.8 10 Oeste 19 Noroeste 0 -- -- 46
2019-08-27 13:00:00 23.1 6 Noroeste 15 Oeste 0 -- -- 55
2019-08-27 12:00:00 21.5 4 Noroeste 11 Oeste 0 -- -- 64
2019-08-27 11:00:00 19.9 3 Oeste 8 Norte 0 -- -- 69
2019-08-27 10:00:00 19.1 4 Nordeste 8 Nordeste 0 -- -- 73
2019-08-27 09:00:00 16.7 0 Calma 5 Noroeste 0 -- -- 87
2019-08-27 08:00:00 14.4 0 Calma 6 Norte 0 -- -- 92
2019-08-27 07:00:00 14.5 0 Calma 11 Norte 0 -- -- 92
2019-08-27 06:00:00 15.3 6 Norte 14 Norte 0 -- -- 90
2019-08-27 05:00:00 16.3 5 Sudoeste 8 Sudoeste 0 -- -- 91
2019-08-27 04:00:00 16.7 5 Norte 14 Nordeste 0 -- -- 88
2019-08-27 03:00:00 17 6 Sudeste 19 Sur 0 -- -- 88
2019-08-27 02:00:00 17.3 3 Sudeste 16 Nordeste 0 -- -- 85
2019-08-27 01:00:00 17.5 6 Sudoeste 14 Sur 0 -- -- 87
2019-08-27 00:00:00 17.5 3 Nordeste 17 Nordeste 1 -- -- 85
2019-08-26 23:00:00 17.8 5 Nordeste 32 Noroeste 4.6 -- -- 86
2019-08-26 22:00:00 20.5 21 Noroeste 43 Oeste 0 -- -- 58
2019-08-26 21:00:00 22.3 21 Oeste 35 Noroeste 0 -- -- 52
2019-08-26 20:00:00 23.6 21 Oeste 37 Oeste 0 -- -- 56
2019-08-26 19:00:00 28.6 11 Sudeste 30 Sudeste 0 -- -- 33
2019-08-26 18:00:00 29.9 16 Sur 34 Sur 0 -- -- 30
2019-08-26 17:00:00 28.8 16 Sudeste 36 Este 0 -- -- 38
2019-08-26 16:00:00 29.7 17 Sudeste 33 Este 0 -- -- 38
2019-08-26 15:00:00 28.2 13 Sudeste 31 Este 0 -- -- 39
2019-08-26 14:00:00 27.1 12 Sudeste 34 Nordeste 0 -- -- 43
2019-08-26 13:00:00 26.4 5 Este 20 Sudeste 0 -- -- 47
2019-08-26 12:00:00 25.3 11 Este 22 Sudeste 0 -- -- 50
2019-08-26 11:00:00 23 9 Sudeste 26 Sudeste 0 -- -- 62
2019-08-26 10:00:00 21.6 14 Sudeste 31 Sudeste 0 -- -- 66
2019-08-26 09:00:00 20.7 11 Este 27 Este 0 -- -- 67
2019-08-26 08:00:00 19.5 14 Sudeste 28 Sudeste 0 -- -- 67
2019-08-26 07:00:00 20 15 Sudeste 38 Sudeste 0 -- -- 64
2019-08-26 06:00:00 20.9 17 Sudeste 41 Sudeste 0 -- -- 56
2019-08-26 05:00:00 21.8 18 Sudeste 38 Sudeste 0 -- -- 50
2019-08-26 04:00:00 22 17 Sudeste 40 Sudeste 0 -- -- 48
2019-08-26 03:00:00 22.6 20 Sudeste 47 Sudeste 0 -- -- 45
2019-08-26 02:00:00 23.7 22 Sudeste 41 Sudeste 0 -- -- 38
2019-08-26 01:00:00 24.2 18 Sudeste 44 Este 0 -- -- 43
2019-08-26 00:00:00 25.4 21 Sudeste 47 Sudeste 0 -- -- 35
2019-08-25 23:00:00 26.5 21 Sudeste 45 Sudeste 0 -- -- 34
2019-08-25 22:00:00 27.7 22 Sudeste 41 Este 0 -- -- 29
2019-08-25 21:00:00 28.8 18 Este 33 Este 0 -- -- 26
2019-08-25 20:00:00 30.4 16 Este 31 Sudeste 0 -- -- 23
2019-08-25 19:00:00 31.9 15 Este 31 Sudeste 0 -- -- 23
2019-08-25 18:00:00 33.2 14 Sudeste 32 Sudeste 0 -- -- 24
2019-08-25 17:00:00 33 11 Sudeste 26 Sudeste 0 -- -- 24
2019-08-25 16:00:00 31.9 12 Este 32 Sudeste 0 -- -- 28
2019-08-25 15:00:00 32.6 9 Sudeste 32 Este 0 -- -- 27
2019-08-25 14:00:00 31.2 9 Este 22 Este 0 -- -- 31
2019-08-25 13:00:00 30.4 7 Sudeste 24 Este 0 -- -- 33
2019-08-25 12:00:00 28.9 7 Sudeste 21 Sudeste 0 -- -- 36
2019-08-25 11:00:00 25.8 11 Sudeste 23 Sudeste 0 -- -- 44
2019-08-25 10:00:00 23.1 14 Sudeste 23 Sudeste 0 -- -- 55
2019-08-25 09:00:00 21.7 6 Sudeste 17 Sudeste 0 -- -- 59
2019-08-25 08:00:00 19.6 7 Sudeste 20 Este 0 -- -- 70
2019-08-25 07:00:00 20.5 10 Este 28 Sudeste 0 -- -- 65
2019-08-25 06:00:00 21.6 13 Sudeste 31 Sudeste 0 -- -- 59
2019-08-25 05:00:00 21.9 11 Sudeste 33 Este 0 -- -- 57
2019-08-25 04:00:00 22.2 15 Sudeste 33 Sudeste 0 -- -- 56
2019-08-25 03:00:00 23.3 15 Sudeste 32 Este 0 -- -- 45
2019-08-25 02:00:00 24.5 16 Sudeste 35 Este 0 -- -- 39
2019-08-25 01:00:00 25.6 9 Sudeste 19 Sudeste 0 -- -- 27
2019-08-25 00:00:00 25.9 5 Sur 10 Sudeste 0 -- -- 27
2019-08-24 23:00:00 26.9 3 Sur 9 Sudeste 0 -- -- 26
2019-08-24 22:00:00 28.7 3 Sudeste 10 Este 0 -- -- 24
2019-08-24 21:00:00 30.9 4 Sudeste 13 Sudeste 0 -- -- 21
2019-08-24 20:00:00 33.2 5 Sudeste 18 Nordeste 0 -- -- 19
2019-08-24 19:00:00 34.1 5 Sudeste 19 Nordeste 0 -- -- 19
2019-08-24 18:00:00 33.5 8 Norte 25 Nordeste 0 -- -- 19
2019-08-24 17:00:00 33 8 Noroeste 24 Nordeste 0 -- -- 20
2019-08-24 16:00:00 33.6 8 Sur 21 Sudeste 0 -- -- 20
2019-08-24 15:00:00 33.3 9 Sudeste 22 Este 0 -- -- 21
2019-08-24 14:00:00 32.3 7 Sur 18 Sudeste 0 -- -- 23
2019-08-24 13:00:00 30.1 8 Sudeste 18 Sudeste 0 -- -- 31
2019-08-24 12:00:00 27.4 8 Sur 21 Sudeste 0 -- -- 36
2019-08-24 11:00:00 25.3 12 Sudeste 17 Sudeste 0 -- -- 41
2019-08-24 10:00:00 22.9 5 Sudeste 15 Sudoeste 0 -- -- 47
2019-08-24 09:00:00 20.7 5 Sur 13 Sudeste 0 -- -- 53
2019-08-24 08:00:00 18.4 6 Sur 11 Sudeste 0 -- -- 60
2019-08-24 07:00:00 19.2 9 Sudeste 22 Sudeste 0 -- -- 57
2019-08-24 06:00:00 19.9 13 Sur 22 Sudeste 0 -- -- 56
2019-08-24 05:00:00 21 10 Sur 16 Sur 0 -- -- 47
2019-08-24 04:00:00 21.8 6 Sur 17 Sudeste 0 -- -- 40
2019-08-24 03:00:00 22.5 8 Sudeste 18 Sudeste 0 -- -- 36
2019-08-24 02:00:00 23.5 8 Sudeste 14 Sur 0 -- -- 31
2019-08-24 01:00:00 24 5 Sur 13 Sudeste 0 -- -- 29
2019-08-24 00:00:00 25.2 6 Sudeste 13 Sudeste 0 -- -- 26
2019-08-23 23:00:00 26.8 7 Sudeste 14 Sudeste 0 -- -- 22
2019-08-23 22:00:00 27.5 6 Sudeste 12 Sudeste 0 -- -- 24
2019-08-23 21:00:00 29.5 5 Este 17 Nordeste 0 -- -- 23
2019-08-23 20:00:00 31.7 8 Nordeste 19 Nordeste 0 -- -- 22
2019-08-23 19:00:00 32.1 5 Este 24 Este 0 -- -- 22
2019-08-23 18:00:00 31.9 10 Nordeste 29 Norte 0 -- -- 24
2019-08-23 17:00:00 31.8 10 Sudeste 30 Este 0 -- -- 24
2019-08-23 16:00:00 31.6 12 Este 28 Este 0 -- -- 25
2019-08-23 15:00:00 30.7 13 Este 31 Este 0 -- -- 26
2019-08-23 14:00:00 30.3 12 Este 27 Este 0 -- -- 28
2019-08-23 13:00:00 29.1 10 Este 22 Este 0 -- -- 29
2019-08-23 12:00:00 26.8 11 Este 22 Este 0 -- -- 33
2019-08-23 11:00:00 24.8 8 Este 18 Este 0 -- -- 42
2019-08-23 10:00:00 22.8 14 Este 22 Este 0 -- -- 47
2019-08-23 09:00:00 20.3 9 Sudeste 17 Sudeste 0 -- -- 56
2019-08-23 08:00:00 18.6 9 Sudeste 19 Sudeste 0 -- -- 60
2019-08-23 07:00:00 19.3 8 Sudeste 14 Sur 0 -- -- 59
2019-08-23 06:00:00 19.9 5 Sudoeste 10 Oeste 0 -- -- 62
2019-08-23 05:00:00 20.5 6 Sudeste 23 Este 0 -- -- 64
2019-08-23 04:00:00 21.5 9 Sudeste 29 Sudeste 0 -- -- 61
2019-08-23 03:00:00 22.4 8 Sudeste 28 Este 0 -- -- 53
2019-08-23 02:00:00 23.7 12 Sudeste 27 Este 0 -- -- 44
2019-08-23 01:00:00 25.5 13 Este 29 Este 0 -- -- 36
2019-08-23 00:00:00 25.8 6 Sudeste 17 Este 0 -- -- 29
2019-08-22 23:00:00 26.7 8 Este 16 Este 0 -- -- 28
2019-08-22 22:00:00 27.4 5 Este 12 Este 0 -- -- 26
2019-08-22 21:00:00 29.1 6 Este 14 Este 0 -- -- 25
2019-08-22 20:00:00 31.4 9 Este 20 Sudeste 0 -- -- 23
2019-08-22 19:00:00 31.9 7 Sur 20 Este 0 -- -- 23
2019-08-22 18:00:00 31.6 7 Nordeste 26 Nordeste 0 -- -- 23
2019-08-22 17:00:00 31.2 8 Este 26 Nordeste 0 -- -- 26
2019-08-22 16:00:00 29.9 12 Nordeste 22 Nordeste 0 -- -- 29
2019-08-22 15:00:00 29.6 9 Nordeste 19 Nordeste 0 -- -- 31
2019-08-22 14:00:00 28.2 8 Nordeste 22 Norte 0 -- -- 37
2019-08-22 13:00:00 26.5 10 Nordeste 19 Norte 0 -- -- 43
2019-08-22 12:00:00 26 8 Nordeste 17 Nordeste 0 -- -- 44
2019-08-22 11:00:00 25 8 Este 14 Este 0 -- -- 44
2019-08-22 10:00:00 22.5 3 Sur 7 Sur 0 -- -- 55
2019-08-22 09:00:00 19.6 4 Oeste 11 Este 0 -- -- 60
2019-08-22 08:00:00 17.3 3 Nordeste 12 Nordeste 0 -- -- 63
2019-08-22 07:00:00 18.5 8 Este 17 Este 0 -- -- 60
2019-08-22 06:00:00 18 8 Este 15 Este 0 -- -- 64
2019-08-22 05:00:00 18 6 Nordeste 15 Este 0 -- -- 75
2019-08-22 04:00:00 17.9 5 Norte 15 Sur 0 -- -- 75
2019-08-22 03:00:00 19 5 Sur 18 Sur 0 -- -- 73
2019-08-22 02:00:00 19.3 12 Sudeste 19 Sudeste 0 -- -- 75
2019-08-22 01:00:00 21.2 13 Sudeste 38 Este 0 -- -- 66
2019-08-22 00:00:00 21 22 Este 49 Este 0 -- -- 69
2019-08-21 23:00:00 21.3 20 Sudeste 44 Sudeste 0 -- -- 73
2019-08-21 22:00:00 22.1 12 Sudeste 28 Sudeste 0 -- -- 71
2019-08-21 21:00:00 23 11 Sudeste 24 Este 0 -- -- 69
2019-08-21 20:00:00 24.2 11 Sudeste 28 Este 0.2 -- -- 69
2019-08-21 19:00:00 23.9 17 Sudeste 40 Este 0 -- -- 71
2019-08-21 18:00:00 28.3 17 Sudeste 33 Sudeste 0 -- -- 50
2019-08-21 17:00:00 28.9 6 Este 24 Este 0 -- -- 41
2019-08-21 16:00:00 28.7 10 Sudeste 32 Este 0 -- -- 43
2019-08-21 15:00:00 29.9 14 Este 24 Este 0 -- -- 43
2019-08-21 14:00:00 27.4 11 Este 27 Este 0 -- -- 49
2019-08-21 13:00:00 26.3 14 Este 28 Este 0 -- -- 55
2019-08-21 12:00:00 26.4 14 Sudeste 33 Sudeste 0 -- -- 56
2019-08-21 11:00:00 24.2 14 Este 32 Este 0 -- -- 64
2019-08-21 10:00:00 23.4 14 Este 34 Este 0 -- -- 68
2019-08-21 09:00:00 20.8 12 Este 31 Este 0 -- -- 78
2019-08-21 08:00:00 19.6 14 Este 33 Este 0 -- -- 83
2019-08-21 07:00:00 19.8 14 Este 42 Este 0 -- -- 82
2019-08-21 06:00:00 20.1 14 Este 32 Nordeste 0 -- -- 80
2019-08-21 05:00:00 20.4 14 Este 32 Este 0 -- -- 79
2019-08-21 04:00:00 20.3 10 Este 30 Este 0 -- -- 78
2019-08-21 03:00:00 20 11 Este 39 Este 0 -- -- 77
2019-08-21 02:00:00 20.1 16 Este 40 Este 0 -- -- 74
2019-08-21 01:00:00 20.4 13 Este 37 Este 0 -- -- 67
2019-08-21 00:00:00 21.5 12 Este 43 Este 0 -- -- 64